createdAt,value
2018-04-11T00:05:18.787Z,10.28
2018-04-11T00:15:16.232Z,10.22
2018-04-11T00:25:12.249Z,9.97
2018-04-11T00:35:09.939Z,9.68
2018-04-11T00:45:04.870Z,9.38
2018-04-11T00:54:59.125Z,9.47
2018-04-11T01:04:57.129Z,9.52
2018-04-11T01:14:54.570Z,9.47
2018-04-11T01:24:48.725Z,9.03
2018-04-11T01:34:44.309Z,8.75
2018-04-11T01:44:40.498Z,8.57
2018-04-11T01:54:34.856Z,8.37
2018-04-11T02:04:33.082Z,7.94
2018-04-11T02:14:27.787Z,7.64
2018-04-11T02:24:25.829Z,7.49
2018-04-11T02:34:22.478Z,7.31
2018-04-11T02:44:18.987Z,7.23
2018-04-11T02:54:15.128Z,6.93
2018-04-11T03:04:10.386Z,6.75
2018-04-11T03:14:07.778Z,6.76
2018-04-11T03:24:01.899Z,6.48
2018-04-11T03:33:56.260Z,6.54
2018-04-11T03:43:52.610Z,6.39
2018-04-11T03:53:49.873Z,6.33
2018-04-11T04:03:44.346Z,6.17
2018-04-11T04:13:40.414Z,6.04
2018-04-11T04:23:35.354Z,6.11
2018-04-11T04:33:31.337Z,6.17
2018-04-11T04:43:28.648Z,6.14
2018-04-11T04:53:27.226Z,6.44
2018-04-11T05:03:25.420Z,6.59
2018-04-11T05:13:19.717Z,6.91
2018-04-11T05:23:18.146Z,7.21
2018-04-11T05:33:16.532Z,7.63
2018-04-11T05:43:13.055Z,7.86
2018-04-11T05:53:08.069Z,8.21
2018-04-11T06:03:06.600Z,8.66
2018-04-11T06:13:04.865Z,9.38
2018-04-11T06:23:03.350Z,10.08
2018-04-11T06:33:01.533Z,10.46
2018-04-11T06:42:58.295Z,10.84
2018-04-11T06:52:53.170Z,10.87
2018-04-11T07:02:51.101Z,11.41
2018-04-11T07:12:46.865Z,12.16
2018-04-11T07:22:46.257Z,12.96
2018-04-11T07:32:45.201Z,13.41
2018-04-11T07:42:43.169Z,14.03
2018-04-11T07:52:38.526Z,14.28
2018-04-11T08:02:35.270Z,14.47
2018-04-11T08:12:32.017Z,14.57
2018-04-11T08:22:29.714Z,14.72
2018-04-11T08:32:24.354Z,14.67
2018-04-11T08:42:21.566Z,15.10
2018-04-11T08:52:06.075Z,15.53
2018-04-11T09:02:03.380Z,15.79
2018-04-11T09:11:39.506Z,16.25
2018-04-11T09:21:17.020Z,16.59
2018-04-11T09:30:55.160Z,17.32
2018-04-11T09:40:31.586Z,17.70
2018-04-11T09:50:09.298Z,18.35
2018-04-11T09:59:47.105Z,18.57
2018-04-11T10:09:24.671Z,19.09
2018-04-11T10:19:02.391Z,19.61
2018-04-11T10:28:40.380Z,19.55
2018-04-11T10:38:17.744Z,20.05
2018-04-11T10:47:59.403Z,20.24
2018-04-11T10:57:28.998Z,21.19
2018-04-11T11:07:07.617Z,21.01
2018-04-11T11:16:44.878Z,21.30
2018-04-11T11:26:24.209Z,20.13
2018-04-11T11:35:52.002Z,20.10
2018-04-11T11:45:28.328Z,22.10
2018-04-11T11:55:08.544Z,24.53
2018-04-11T12:04:46.905Z,24.34
2018-04-11T12:14:25.208Z,24.04
2018-04-11T12:24:00.757Z,23.92
2018-04-11T12:33:38.416Z,23.07
2018-04-11T12:43:13.059Z,21.01
2018-04-11T12:52:52.602Z,21.14
2018-04-11T13:02:21.188Z,21.86
2018-04-11T13:12:02.087Z,24.83
2018-04-11T13:21:46.429Z,23.35
2018-04-11T13:31:15.529Z,24.60
2018-04-11T13:40:53.477Z,24.64
2018-04-11T13:50:26.527Z,22.23
2018-04-11T14:00:00.731Z,21.89
2018-04-11T14:09:34.774Z,21.54
2018-04-11T14:19:12.585Z,21.30
2018-04-11T14:28:48.135Z,20.90
2018-04-11T14:38:24.748Z,20.75
2018-04-11T14:48:02.061Z,20.86
2018-04-11T14:57:39.203Z,20.74
2018-04-11T15:07:17.681Z,22.07
2018-04-11T15:16:57.745Z,22.41
2018-04-11T15:26:36.257Z,22.13
2018-04-11T15:36:15.581Z,22.62
2018-04-11T15:45:51.256Z,22.28
2018-04-11T15:55:29.826Z,21.51
2018-04-11T16:05:03.395Z,21.41
2018-04-11T16:14:39.225Z,21.26
2018-04-11T16:24:15.622Z,21.04
2018-04-11T16:33:52.047Z,20.79
2018-04-11T16:43:28.717Z,20.23
2018-04-11T16:53:04.961Z,19.83
2018-04-11T17:02:40.979Z,19.58
2018-04-11T17:12:17.155Z,19.31
2018-04-11T17:21:53.691Z,18.71
2018-04-11T17:31:33.607Z,18.67
2018-04-11T17:41:05.662Z,18.11
2018-04-11T17:50:34.343Z,18.06
2018-04-11T18:00:09.092Z,17.66
2018-04-11T18:09:44.967Z,17.36
2018-04-11T18:19:23.756Z,17.05
2018-04-11T18:29:03.582Z,16.77
2018-04-11T18:38:40.842Z,16.70
2018-04-11T18:48:35.711Z,16.48
2018-04-11T18:58:31.772Z,16.41
2018-04-11T19:08:25.367Z,15.82
2018-04-11T19:18:20.124Z,15.41
2018-04-11T19:28:16.342Z,15.12
2018-04-11T19:38:11.904Z,14.88
2018-04-11T19:48:07.884Z,14.29
2018-04-11T19:58:04.710Z,14.11
2018-04-11T20:08:00.149Z,13.89
2018-04-11T20:17:52.128Z,13.36
2018-04-11T20:27:48.305Z,13.33
2018-04-11T20:37:45.157Z,13.09
2018-04-11T20:47:40.019Z,12.71
2018-04-11T20:57:35.309Z,12.48
2018-04-11T21:07:31.051Z,12.05
2018-04-11T21:17:27.697Z,12.18
2018-04-11T21:27:21.989Z,12.28
2018-04-11T21:37:18.479Z,12.33
2018-04-11T21:47:15.874Z,12.24
2018-04-11T21:57:11.925Z,12.39
2018-04-11T22:07:09.771Z,12.30
2018-04-11T22:17:08.015Z,12.24
2018-04-11T22:27:02.591Z,12.05
2018-04-11T22:36:56.658Z,11.72
2018-04-11T22:46:53.796Z,11.39
2018-04-11T22:56:49.960Z,11.16
2018-04-11T23:06:46.347Z,11.24
2018-04-11T23:16:43.190Z,10.85
2018-04-11T23:26:39.863Z,10.92
2018-04-11T23:36:37.930Z,11.24
2018-04-11T23:46:36.688Z,11.42
2018-04-11T23:56:33.740Z,11.60
